createdAt,value
2017-02-24T00:00:38.650Z,0
2017-02-24T00:01:50.081Z,0
2017-02-24T00:03:01.533Z,0
2017-02-24T00:04:12.966Z,0
2017-02-24T00:05:24.444Z,0
2017-02-24T00:06:35.904Z,0
2017-02-24T00:07:47.329Z,0
2017-02-24T00:08:58.770Z,0
2017-02-24T00:10:10.217Z,0
2017-02-24T00:11:21.650Z,0
2017-02-24T00:12:33.093Z,0
2017-02-24T00:13:44.733Z,0
2017-02-24T00:14:56.160Z,0
2017-02-24T00:16:07.848Z,0
2017-02-24T00:17:19.286Z,0
2017-02-24T00:18:30.718Z,0
2017-02-24T00:19:42.150Z,0
2017-02-24T00:20:53.598Z,0
2017-02-24T00:22:05.063Z,0
2017-02-24T00:23:16.482Z,0
2017-02-24T00:24:27.925Z,0
2017-02-24T00:25:39.364Z,0
2017-02-24T00:26:50.853Z,0
2017-02-24T00:28:02.286Z,0
2017-02-24T00:29:13.714Z,0
2017-02-24T00:30:25.147Z,0
2017-02-24T00:31:36.586Z,0
2017-02-24T00:32:48.029Z,0
2017-02-24T00:33:59.471Z,0
2017-02-24T00:35:10.911Z,0
2017-02-24T00:36:22.344Z,0
2017-02-24T00:37:33.965Z,0
2017-02-24T00:38:45.404Z,0
2017-02-24T00:39:57.079Z,0
2017-02-24T00:41:08.709Z,0
2017-02-24T00:42:20.153Z,0
2017-02-24T00:43:31.794Z,0
2017-02-24T00:44:43.229Z,0
2017-02-24T00:45:54.676Z,0
2017-02-24T00:47:06.121Z,0
2017-02-24T00:48:17.596Z,0
2017-02-24T00:49:29.022Z,0
2017-02-24T00:50:40.446Z,0
2017-02-24T00:51:51.891Z,0
2017-02-24T00:53:03.330Z,0
2017-02-24T00:54:14.834Z,0
2017-02-24T00:55:26.281Z,0
2017-02-24T00:56:37.716Z,0
2017-02-24T00:57:49.150Z,0
2017-02-24T00:59:00.647Z,0
2017-02-24T01:00:12.304Z,0
2017-02-24T01:01:23.945Z,0
2017-02-24T01:02:35.397Z,0
2017-02-24T01:03:46.819Z,0
2017-02-24T01:04:58.256Z,0
2017-02-24T01:06:09.696Z,0
2017-02-24T01:07:21.131Z,0
2017-02-24T01:08:32.789Z,0
2017-02-24T01:09:44.275Z,0
2017-02-24T01:10:55.712Z,0
2017-02-24T01:12:07.141Z,0
2017-02-24T01:13:18.588Z,0
2017-02-24T01:14:30.013Z,0
2017-02-24T01:15:41.449Z,0
2017-02-24T01:16:52.897Z,0
2017-02-24T01:18:04.335Z,0
2017-02-24T01:19:15.794Z,0
2017-02-24T01:20:27.267Z,0
2017-02-24T01:21:38.707Z,0
2017-02-24T01:22:50.148Z,0
2017-02-24T01:24:01.574Z,0
2017-02-24T01:25:13.005Z,0
2017-02-24T01:26:24.479Z,0
2017-02-24T01:27:35.917Z,0
2017-02-24T01:28:47.771Z,0
2017-02-24T01:29:59.195Z,0
2017-02-24T01:31:10.650Z,0
2017-02-24T01:32:22.080Z,0
2017-02-24T01:33:33.510Z,0
2017-02-24T01:34:44.932Z,0
2017-02-24T01:35:56.358Z,0
2017-02-24T01:37:08.050Z,0
2017-02-24T01:38:19.487Z,0
2017-02-24T01:39:30.916Z,0
2017-02-24T01:40:42.357Z,0
2017-02-24T01:41:53.787Z,0
2017-02-24T01:43:05.276Z,0
2017-02-24T01:44:16.715Z,0
2017-02-24T01:45:28.355Z,0
2017-02-24T01:46:39.788Z,0
2017-02-24T01:47:51.416Z,0
2017-02-24T01:49:02.854Z,0
2017-02-24T01:50:14.279Z,0
2017-02-24T01:51:25.720Z,0
2017-02-24T01:52:37.159Z,0
2017-02-24T01:53:48.631Z,0
2017-02-24T01:55:00.049Z,0
2017-02-24T01:56:11.526Z,0
2017-02-24T01:57:23.168Z,0
2017-02-24T01:58:34.637Z,0
2017-02-24T01:59:46.074Z,0
2017-02-24T02:00:57.519Z,0
2017-02-24T02:02:08.953Z,0
2017-02-24T02:03:20.387Z,0
2017-02-24T02:04:32.014Z,0
2017-02-24T02:05:43.437Z,0
2017-02-24T02:06:54.861Z,0
2017-02-24T02:08:06.553Z,0
2017-02-24T02:09:18.074Z,0
2017-02-24T02:10:29.575Z,0
2017-02-24T02:11:41.072Z,0
2017-02-24T02:12:52.592Z,0
2017-02-24T02:14:04.297Z,0
2017-02-24T02:15:15.857Z,0
2017-02-24T02:16:27.363Z,0
2017-02-24T02:17:39.091Z,0
2017-02-24T02:18:50.791Z,0
2017-02-24T02:20:02.292Z,0
2017-02-24T02:21:13.835Z,0
2017-02-24T02:22:25.322Z,0
2017-02-24T02:23:36.835Z,0
2017-02-24T02:24:48.330Z,0
2017-02-24T02:25:59.892Z,0
2017-02-24T02:27:11.586Z,0
2017-02-24T02:28:23.095Z,0
2017-02-24T02:29:34.594Z,0
2017-02-24T02:30:46.094Z,0
2017-02-24T02:31:57.595Z,0
2017-02-24T02:33:09.280Z,0
2017-02-24T02:34:21.184Z,0
2017-02-24T02:35:32.694Z,0
2017-02-24T02:36:44.238Z,0
2017-02-24T02:37:55.734Z,0
2017-02-24T02:39:07.231Z,0
2017-02-24T02:40:18.733Z,0
2017-02-24T02:41:30.440Z,0
2017-02-24T02:42:41.972Z,0
2017-02-24T02:43:53.646Z,0
2017-02-24T02:45:05.158Z,0
2017-02-24T02:46:16.654Z,0
2017-02-24T02:47:28.165Z,0
2017-02-24T02:48:39.666Z,0
2017-02-24T02:49:51.164Z,0
2017-02-24T02:51:02.646Z,0
2017-02-24T02:52:14.386Z,0
2017-02-24T02:53:25.858Z,0
2017-02-24T02:54:37.352Z,0
2017-02-24T02:55:48.836Z,0
2017-02-24T02:57:00.340Z,0
2017-02-24T02:58:11.850Z,0
2017-02-24T02:59:23.348Z,0
2017-02-24T03:00:34.836Z,0
2017-02-24T03:01:46.336Z,0
2017-02-24T03:02:57.897Z,0
2017-02-24T03:04:09.587Z,0
2017-02-24T03:05:21.075Z,0
2017-02-24T03:06:32.588Z,0
2017-02-24T03:07:44.082Z,0
2017-02-24T03:08:55.782Z,0
2017-02-24T03:10:07.284Z,0
2017-02-24T03:11:18.783Z,0
2017-02-24T03:12:30.285Z,0
2017-02-24T03:13:42.445Z,0
2017-02-24T03:14:53.940Z,0
2017-02-24T03:16:05.430Z,0
2017-02-24T03:17:16.927Z,0
2017-02-24T03:18:28.418Z,0
2017-02-24T03:19:39.960Z,0
2017-02-24T03:20:51.444Z,0
2017-02-24T03:22:02.934Z,0
2017-02-24T03:23:14.437Z,0
2017-02-24T03:24:25.979Z,0
2017-02-24T03:25:37.477Z,0
2017-02-24T03:26:48.969Z,0
2017-02-24T03:28:00.488Z,0
2017-02-24T03:29:11.990Z,0
2017-02-24T03:30:23.482Z,0
2017-02-24T03:31:34.995Z,0
2017-02-24T03:32:46.523Z,0
2017-02-24T03:33:58.010Z,0
2017-02-24T03:35:09.560Z,0
2017-02-24T03:36:21.038Z,0
2017-02-24T03:37:32.606Z,0
2017-02-24T03:38:44.104Z,0
2017-02-24T03:39:55.610Z,0
2017-02-24T03:41:07.091Z,0
2017-02-24T03:42:18.588Z,0
2017-02-24T03:43:30.317Z,0
2017-02-24T03:44:41.821Z,0
2017-02-24T03:45:53.379Z,0
2017-02-24T03:47:04.874Z,0
2017-02-24T03:48:16.358Z,0
2017-02-24T03:49:28.071Z,0
2017-02-24T03:50:39.576Z,0
2017-02-24T03:51:51.281Z,0
2017-02-24T03:53:02.758Z,0
2017-02-24T03:54:14.254Z,0
2017-02-24T03:55:26.155Z,0
2017-02-24T03:56:37.705Z,0
2017-02-24T03:57:49.592Z,0
2017-02-24T03:59:01.101Z,0
2017-02-24T04:00:12.600Z,0
2017-02-24T04:01:24.113Z,0
2017-02-24T04:02:35.822Z,0
2017-02-24T04:03:47.301Z,0
2017-02-24T04:04:58.810Z,0
2017-02-24T04:06:10.508Z,0
2017-02-24T04:07:22.048Z,0
2017-02-24T04:08:33.537Z,0
2017-02-24T04:09:45.042Z,0
2017-02-24T04:10:56.527Z,0
2017-02-24T04:12:08.243Z,0
2017-02-24T04:13:19.939Z,0
2017-02-24T04:14:31.431Z,0
2017-02-24T04:15:42.967Z,0
2017-02-24T04:16:54.457Z,0
2017-02-24T04:18:05.953Z,0
2017-02-24T04:19:17.465Z,0
2017-02-24T04:20:28.960Z,0
2017-02-24T04:21:40.454Z,0
2017-02-24T04:22:51.931Z,0
2017-02-24T04:24:03.468Z,0
2017-02-24T04:25:14.946Z,0
2017-02-24T04:26:26.657Z,0
2017-02-24T04:27:38.161Z,0
2017-02-24T04:28:49.647Z,0
2017-02-24T04:30:01.155Z,0
2017-02-24T04:31:12.622Z,0
2017-02-24T04:32:24.130Z,0
2017-02-24T04:33:35.649Z,0
2017-02-24T04:34:47.170Z,0
2017-02-24T04:35:58.865Z,0
2017-02-24T04:37:10.331Z,0
2017-02-24T04:38:21.797Z,0
2017-02-24T04:39:33.495Z,0
2017-02-24T04:40:45.266Z,0
2017-02-24T04:41:56.785Z,0
2017-02-24T04:43:08.273Z,0
2017-02-24T04:44:19.776Z,0
2017-02-24T04:45:31.339Z,0
2017-02-24T04:46:42.846Z,0
2017-02-24T04:47:54.336Z,0
2017-02-24T04:49:06.045Z,0
2017-02-24T04:50:17.531Z,0
2017-02-24T04:51:29.022Z,0
2017-02-24T04:52:40.550Z,0
2017-02-24T04:53:52.055Z,0
2017-02-24T04:55:03.539Z,0
2017-02-24T04:56:15.287Z,0
2017-02-24T04:57:27.002Z,0
2017-02-24T04:58:38.513Z,0
2017-02-24T04:59:49.987Z,0
2017-02-24T05:01:01.502Z,0
2017-02-24T05:02:13.176Z,0
2017-02-24T05:03:25.089Z,0
2017-02-24T05:04:36.576Z,0
2017-02-24T05:05:48.082Z,0
2017-02-24T05:06:59.632Z,0
2017-02-24T05:08:11.134Z,0
2017-02-24T05:09:22.671Z,0
2017-02-24T05:10:34.184Z,0
2017-02-24T05:11:45.681Z,0
2017-02-24T05:12:57.349Z,0
2017-02-24T05:14:08.831Z,0
2017-02-24T05:15:20.317Z,0
2017-02-24T05:16:31.825Z,0
2017-02-24T05:17:43.416Z,0
2017-02-24T05:18:54.910Z,0
2017-02-24T05:20:06.406Z,0
2017-02-24T05:21:17.917Z,0
2017-02-24T05:22:29.813Z,0
2017-02-24T05:23:41.489Z,0
2017-02-24T05:24:53.035Z,0
2017-02-24T05:26:04.571Z,0
2017-02-24T05:27:16.266Z,0
2017-02-24T05:28:27.804Z,0
2017-02-24T05:29:39.302Z,0
2017-02-24T05:30:50.804Z,0
2017-02-24T05:32:02.325Z,0
2017-02-24T05:33:14.048Z,0
2017-02-24T05:34:25.531Z,0
2017-02-24T05:35:37.040Z,0
2017-02-24T05:36:48.537Z,0
2017-02-24T05:38:00.074Z,0
2017-02-24T05:39:11.593Z,0
2017-02-24T05:40:23.087Z,0
2017-02-24T05:41:34.611Z,0
2017-02-24T05:42:46.108Z,0
2017-02-24T05:43:57.623Z,0
2017-02-24T05:45:09.117Z,0
2017-02-24T05:46:20.608Z,0
2017-02-24T05:47:32.317Z,0
2017-02-24T05:48:43.791Z,0
2017-02-24T05:49:55.344Z,0
2017-02-24T05:51:07.040Z,0
2017-02-24T05:52:18.943Z,0
2017-02-24T05:53:30.674Z,0
2017-02-24T05:54:42.389Z,0
2017-02-24T05:55:53.902Z,0
2017-02-24T05:57:05.389Z,0
2017-02-24T05:58:16.881Z,0
2017-02-24T05:59:28.398Z,0
2017-02-24T06:00:40.138Z,0
2017-02-24T06:01:51.651Z,0
2017-02-24T06:03:03.164Z,0
2017-02-24T06:04:14.658Z,0
2017-02-24T06:05:26.367Z,0
2017-02-24T06:06:37.854Z,0
2017-02-24T06:07:49.340Z,0
2017-02-24T06:09:00.872Z,0
2017-02-24T06:10:12.574Z,0
2017-02-24T06:11:24.123Z,0
2017-02-24T06:12:35.608Z,0
2017-02-24T06:13:47.094Z,0
2017-02-24T06:14:58.589Z,0
2017-02-24T06:16:10.102Z,0
2017-02-24T06:17:21.649Z,0
2017-02-24T06:18:33.541Z,5
2017-02-24T06:19:45.025Z,5
2017-02-24T06:20:56.518Z,5
2017-02-24T06:22:08.213Z,5
2017-02-24T06:23:19.701Z,5
2017-02-24T06:24:31.173Z,5
2017-02-24T06:25:42.691Z,10
2017-02-24T06:26:54.197Z,10
2017-02-24T06:28:05.732Z,10
2017-02-24T06:29:17.231Z,15
2017-02-24T06:30:28.735Z,15
2017-02-24T06:31:40.238Z,15
2017-02-24T06:32:51.787Z,20
2017-02-24T06:34:03.285Z,20
2017-02-24T06:35:14.803Z,20
2017-02-24T06:36:26.704Z,25
2017-02-24T06:37:38.378Z,25
2017-02-24T06:38:50.097Z,25
2017-02-24T06:40:01.599Z,25
2017-02-24T06:41:13.092Z,25
2017-02-24T06:42:24.594Z,25
2017-02-24T06:43:36.098Z,30
2017-02-24T06:44:47.989Z,30
2017-02-24T06:45:59.496Z,30
2017-02-24T06:47:10.989Z,35
2017-02-24T06:48:22.738Z,40
2017-02-24T06:49:34.224Z,40
2017-02-24T06:50:45.921Z,40
2017-02-24T06:51:57.392Z,40
2017-02-24T06:53:08.890Z,35
2017-02-24T06:54:20.389Z,30
2017-02-24T06:55:32.057Z,25
2017-02-24T06:56:43.535Z,25
2017-02-24T06:57:55.021Z,30
2017-02-24T06:59:06.590Z,30
2017-02-24T07:00:18.100Z,30
2017-02-24T07:01:29.645Z,35
2017-02-24T07:02:41.348Z,35
2017-02-24T07:03:53.044Z,35
2017-02-24T07:05:04.532Z,30
2017-02-24T07:06:16.007Z,35
2017-02-24T07:07:27.497Z,35
2017-02-24T07:08:38.998Z,35
2017-02-24T07:09:50.743Z,40
2017-02-24T07:11:02.424Z,40
2017-02-24T07:12:13.923Z,40
2017-02-24T07:13:25.429Z,40
2017-02-24T07:14:36.919Z,40
2017-02-24T07:15:48.413Z,45
2017-02-24T07:16:59.924Z,45
2017-02-24T07:18:11.406Z,55
2017-02-24T07:19:22.934Z,65
2017-02-24T07:20:34.467Z,75
2017-02-24T07:21:45.949Z,90
2017-02-24T07:22:57.442Z,120
2017-02-24T07:24:08.952Z,140
2017-02-24T07:25:20.461Z,160
2017-02-24T07:26:31.973Z,175
2017-02-24T07:27:43.475Z,185
2017-02-24T07:28:55.173Z,180
2017-02-24T07:30:06.663Z,180
2017-02-24T07:31:18.227Z,190
2017-02-24T07:32:29.703Z,195
2017-02-24T07:33:41.181Z,205
2017-02-24T07:34:52.673Z,235
2017-02-24T07:36:04.190Z,275
2017-02-24T07:37:15.688Z,240
2017-02-24T07:38:27.162Z,230
2017-02-24T07:39:38.655Z,250
2017-02-24T07:40:50.168Z,295
2017-02-24T07:42:01.745Z,270
2017-02-24T07:43:13.455Z,255
2017-02-24T07:44:24.970Z,240
2017-02-24T07:45:36.452Z,230
2017-02-24T07:46:47.970Z,225
2017-02-24T07:47:59.485Z,240
2017-02-24T07:49:11.017Z,250
2017-02-24T07:50:22.528Z,245
2017-02-24T07:51:34.057Z,240
2017-02-24T07:52:46.019Z,230
2017-02-24T07:53:57.703Z,225
2017-02-24T07:55:09.195Z,230
2017-02-24T07:56:20.689Z,230
2017-02-24T07:57:32.210Z,240
2017-02-24T07:58:43.730Z,265
2017-02-24T07:59:55.226Z,300
2017-02-24T08:01:06.715Z,285
2017-02-24T08:02:18.225Z,275
2017-02-24T08:03:29.964Z,290
2017-02-24T08:04:41.643Z,305
2017-02-24T08:05:53.165Z,325
2017-02-24T08:07:04.651Z,340
2017-02-24T08:08:16.132Z,365
2017-02-24T08:09:27.627Z,445
2017-02-24T08:10:39.134Z,545
2017-02-24T08:11:50.663Z,590
2017-02-24T08:13:02.172Z,585
2017-02-24T08:14:13.725Z,625
2017-02-24T08:15:25.231Z,855
2017-02-24T08:16:36.718Z,1195
2017-02-24T08:17:48.232Z,1450
2017-02-24T08:18:59.749Z,1195
2017-02-24T08:20:11.270Z,1670
2017-02-24T08:21:22.782Z,1035
2017-02-24T08:22:34.274Z,1070
2017-02-24T08:23:45.756Z,895
2017-02-24T08:24:57.522Z,1005
2017-02-24T08:26:09.234Z,1010
2017-02-24T08:27:20.729Z,1155
2017-02-24T08:28:32.239Z,1240
2017-02-24T08:29:43.752Z,1310
2017-02-24T08:30:55.260Z,1625
2017-02-24T08:32:06.766Z,1790
2017-02-24T08:33:18.485Z,1665
2017-02-24T08:34:29.991Z,1540
2017-02-24T08:35:41.543Z,855
2017-02-24T08:36:53.059Z,1125
2017-02-24T08:38:04.576Z,1705
2017-02-24T08:39:16.082Z,1910
2017-02-24T08:40:27.589Z,1740
2017-02-24T08:41:39.106Z,2255
2017-02-24T08:42:50.599Z,2175
2017-02-24T08:44:02.106Z,1970
2017-02-24T08:45:13.604Z,1725
2017-02-24T08:46:25.166Z,1885
2017-02-24T08:47:36.873Z,1550
2017-02-24T08:48:48.409Z,1520
2017-02-24T08:49:59.932Z,1165
2017-02-24T08:51:11.446Z,1090
2017-02-24T08:52:23.174Z,1355
2017-02-24T08:53:34.720Z,1270
2017-02-24T08:54:46.223Z,1070
2017-02-24T08:55:57.710Z,890
2017-02-24T08:57:09.280Z,1160
2017-02-24T08:58:20.774Z,1330
2017-02-24T08:59:32.274Z,1140
2017-02-24T09:00:43.805Z,1210
2017-02-24T09:01:55.317Z,1570
2017-02-24T09:03:07.055Z,1745
2017-02-24T09:04:18.588Z,1480
2017-02-24T09:05:30.111Z,1680
2017-02-24T09:06:41.643Z,1415
2017-02-24T09:07:53.505Z,1085
2017-02-24T09:09:05.025Z,925
2017-02-24T09:10:16.519Z,855
2017-02-24T09:11:28.017Z,825
2017-02-24T09:12:39.545Z,840
2017-02-24T09:13:51.089Z,770
2017-02-24T09:15:02.605Z,795
2017-02-24T09:16:14.320Z,1070
2017-02-24T09:17:25.840Z,1420
2017-02-24T09:18:37.390Z,1330
2017-02-24T09:19:48.908Z,1430
2017-02-24T09:21:00.409Z,1200
2017-02-24T09:22:11.917Z,1450
2017-02-24T09:23:23.427Z,1510
2017-02-24T09:24:34.934Z,1410
2017-02-24T09:25:46.434Z,1430
2017-02-24T09:26:57.934Z,1310
2017-02-24T09:28:09.451Z,1495
2017-02-24T09:29:21.002Z,1525
2017-02-24T09:30:32.549Z,1810
2017-02-24T09:31:44.268Z,2005
2017-02-24T09:32:55.963Z,1770
2017-02-24T09:34:07.479Z,1980
2017-02-24T09:35:18.976Z,2320
2017-02-24T09:36:30.730Z,2135
2017-02-24T09:37:42.248Z,2200
2017-02-24T09:38:53.780Z,1915
2017-02-24T09:40:05.338Z,1685
2017-02-24T09:41:16.843Z,2140
2017-02-24T09:42:28.545Z,1715
2017-02-24T09:43:40.086Z,1575
2017-02-24T09:44:51.590Z,1825
2017-02-24T09:46:03.306Z,2185
2017-02-24T09:47:14.827Z,2205
2017-02-24T09:48:26.319Z,1990
2017-02-24T09:49:37.839Z,2340
2017-02-24T09:50:49.400Z,2525
2017-02-24T09:52:00.903Z,2730
2017-02-24T09:53:12.424Z,2325
2017-02-24T09:54:24.141Z,2730
2017-02-24T09:55:35.670Z,2670
2017-02-24T09:56:47.194Z,2655
2017-02-24T09:57:58.721Z,1010
2017-02-24T09:59:10.267Z,1395
2017-02-24T10:00:21.974Z,510
2017-02-24T10:01:33.557Z,2795
2017-02-24T10:02:45.290Z,2825
2017-02-24T10:03:56.816Z,525
2017-02-24T10:05:08.377Z,2795
2017-02-24T10:06:19.925Z,2750
2017-02-24T10:07:31.505Z,2690
2017-02-24T10:08:43.011Z,2465
2017-02-24T10:09:54.926Z,2450
2017-02-24T10:11:06.474Z,2545
2017-02-24T10:12:18.088Z,725
2017-02-24T10:13:29.623Z,2555
2017-02-24T10:14:41.363Z,2600
2017-02-24T10:15:52.889Z,2580
2017-02-24T10:17:04.425Z,2730
2017-02-24T10:18:15.965Z,2615
2017-02-24T10:19:27.470Z,2755
2017-02-24T10:20:39.181Z,1110
2017-02-24T10:21:50.696Z,825
2017-02-24T10:23:02.245Z,455
2017-02-24T10:24:13.779Z,540
2017-02-24T10:25:25.294Z,2550
2017-02-24T10:26:36.792Z,2640
2017-02-24T10:27:48.523Z,695
2017-02-24T10:29:00.042Z,625
2017-02-24T10:30:11.575Z,1140
2017-02-24T10:31:23.087Z,1000
2017-02-24T10:32:34.626Z,2430
2017-02-24T10:33:46.414Z,1505
2017-02-24T10:34:57.929Z,625
2017-02-24T10:36:09.474Z,635
2017-02-24T10:37:21.014Z,2675
2017-02-24T10:38:32.933Z,2665
2017-02-24T10:39:44.471Z,790
2017-02-24T10:40:55.976Z,625
2017-02-24T10:42:07.692Z,2045
2017-02-24T10:43:19.222Z,500
2017-02-24T10:44:30.762Z,390
2017-02-24T10:45:42.474Z,440
2017-02-24T10:46:54.001Z,695
2017-02-24T10:48:05.502Z,385
2017-02-24T10:49:17.003Z,505
2017-02-24T10:50:28.547Z,2150
2017-02-24T10:51:40.294Z,2395
2017-02-24T10:52:51.997Z,2365
2017-02-24T10:54:03.532Z,2300
2017-02-24T10:55:15.017Z,2310
2017-02-24T10:56:26.527Z,2355
2017-02-24T10:57:38.252Z,810
2017-02-24T10:58:49.762Z,2570
2017-02-24T11:00:01.275Z,2485
2017-02-24T11:01:12.836Z,535
2017-02-24T11:02:24.357Z,425
2017-02-24T11:03:35.877Z,430
2017-02-24T11:04:47.392Z,2250
2017-02-24T11:05:58.915Z,1895
2017-02-24T11:07:10.431Z,440
2017-02-24T11:08:21.939Z,455
2017-02-24T11:09:33.467Z,2240
2017-02-24T11:10:44.985Z,2230
2017-02-24T11:11:56.543Z,2315
2017-02-24T11:13:08.054Z,2335
2017-02-24T11:14:19.569Z,2220
2017-02-24T11:15:31.087Z,2230
2017-02-24T11:16:42.581Z,2190
2017-02-24T11:17:54.294Z,2170
2017-02-24T11:19:05.800Z,2145
2017-02-24T11:20:17.322Z,2275
2017-02-24T11:21:28.832Z,2225
2017-02-24T11:22:40.357Z,2160
2017-02-24T11:23:51.858Z,800
2017-02-24T11:25:03.383Z,2250
2017-02-24T11:26:14.891Z,825
2017-02-24T11:27:26.646Z,1440
2017-02-24T11:28:38.200Z,935
2017-02-24T11:29:49.703Z,705
2017-02-24T11:31:01.399Z,395
2017-02-24T11:32:12.920Z,260
2017-02-24T11:33:24.429Z,205
2017-02-24T11:34:35.954Z,140
2017-02-24T11:35:47.670Z,90
2017-02-24T11:36:59.173Z,75
2017-02-24T11:38:10.756Z,70
2017-02-24T11:39:22.283Z,55
2017-02-24T11:40:33.795Z,55
2017-02-24T11:41:45.338Z,70
2017-02-24T11:42:56.829Z,95
2017-02-24T11:44:08.733Z,150
2017-02-24T11:45:20.232Z,135
2017-02-24T11:46:31.730Z,85
2017-02-24T11:47:43.444Z,80
2017-02-24T11:48:55.007Z,100
2017-02-24T11:50:06.509Z,135
2017-02-24T11:51:17.993Z,165
2017-02-24T11:52:29.521Z,175
2017-02-24T11:53:41.011Z,190
2017-02-24T11:54:52.499Z,200
2017-02-24T11:56:04.012Z,220
2017-02-24T11:57:15.522Z,325
2017-02-24T11:58:27.020Z,290
2017-02-24T11:59:38.536Z,265
2017-02-24T12:00:50.042Z,280
2017-02-24T12:02:01.536Z,350
2017-02-24T12:03:13.245Z,360
2017-02-24T12:04:24.734Z,325
2017-02-24T12:05:36.463Z,310
2017-02-24T12:06:47.969Z,450
2017-02-24T12:07:59.473Z,1240
2017-02-24T12:09:10.990Z,1445
2017-02-24T12:10:22.479Z,390
2017-02-24T12:11:34.046Z,465
2017-02-24T12:12:45.761Z,1625
2017-02-24T12:13:57.470Z,1625
2017-02-24T12:15:09.028Z,1495
2017-02-24T12:16:20.542Z,515
2017-02-24T12:17:32.021Z,1370
2017-02-24T12:18:43.555Z,1420
2017-02-24T12:19:55.267Z,1155
2017-02-24T12:21:06.748Z,360
2017-02-24T12:22:18.264Z,345
2017-02-24T12:23:29.773Z,320
2017-02-24T12:24:41.291Z,310
2017-02-24T12:25:52.848Z,310
2017-02-24T12:27:04.361Z,1200
2017-02-24T12:28:15.874Z,1135
2017-02-24T12:29:27.385Z,835
2017-02-24T12:30:38.880Z,865
2017-02-24T12:31:50.391Z,885
2017-02-24T12:33:02.098Z,905
2017-02-24T12:34:13.603Z,895
2017-02-24T12:35:25.097Z,835
2017-02-24T12:36:36.644Z,765
2017-02-24T12:37:48.156Z,395
2017-02-24T12:38:59.665Z,750
2017-02-24T12:40:11.371Z,770
2017-02-24T12:41:22.879Z,820
2017-02-24T12:42:34.400Z,855
2017-02-24T12:43:45.911Z,830
2017-02-24T12:44:57.402Z,870
2017-02-24T12:46:08.916Z,975
2017-02-24T12:47:20.471Z,945
2017-02-24T12:48:31.973Z,955
2017-02-24T12:49:43.477Z,1135
2017-02-24T12:50:54.988Z,1045
2017-02-24T12:52:06.687Z,600
2017-02-24T12:53:18.174Z,565
2017-02-24T12:54:29.680Z,335
2017-02-24T12:55:41.179Z,335
2017-02-24T12:56:52.680Z,475
2017-02-24T12:58:04.208Z,725
2017-02-24T12:59:15.706Z,700
2017-02-24T13:00:27.209Z,720
2017-02-24T13:01:38.914Z,585
2017-02-24T13:02:50.424Z,645
2017-02-24T13:04:01.972Z,480
2017-02-24T13:05:13.483Z,520
2017-02-24T13:06:24.984Z,475
2017-02-24T13:07:36.492Z,410
2017-02-24T13:08:47.986Z,340
2017-02-24T13:09:59.492Z,295
2017-02-24T13:11:11.023Z,250
2017-02-24T13:12:22.527Z,235
2017-02-24T13:13:34.054Z,280
2017-02-24T13:14:45.617Z,525
2017-02-24T13:15:57.117Z,525
2017-02-24T13:17:08.631Z,535
2017-02-24T13:18:20.327Z,380
2017-02-24T13:19:32.026Z,440
2017-02-24T13:20:43.745Z,445
2017-02-24T13:21:55.483Z,450
2017-02-24T13:23:07.022Z,495
2017-02-24T13:24:18.528Z,460
2017-02-24T13:25:30.289Z,450
2017-02-24T13:26:41.800Z,680
2017-02-24T13:27:53.292Z,615
2017-02-24T13:29:04.806Z,565
2017-02-24T13:30:16.294Z,555
2017-02-24T13:31:27.794Z,525
2017-02-24T13:32:39.493Z,500
2017-02-24T13:33:51.011Z,455
2017-02-24T13:35:02.499Z,375
2017-02-24T13:36:14.064Z,315
2017-02-24T13:37:25.566Z,305
2017-02-24T13:38:37.079Z,345
2017-02-24T13:39:48.601Z,395
2017-02-24T13:41:00.100Z,390
2017-02-24T13:42:11.604Z,380
2017-02-24T13:43:23.146Z,345
2017-02-24T13:44:34.645Z,310
2017-02-24T13:45:46.154Z,285
2017-02-24T13:46:57.915Z,275
2017-02-24T13:48:09.392Z,270
2017-02-24T13:49:20.923Z,275
2017-02-24T13:50:32.620Z,305
2017-02-24T13:51:44.124Z,320
2017-02-24T13:52:55.640Z,315
2017-02-24T13:54:07.149Z,315
2017-02-24T13:55:18.653Z,315
2017-02-24T13:56:30.364Z,315
2017-02-24T13:57:41.929Z,315
2017-02-24T13:58:53.440Z,310
2017-02-24T14:00:04.948Z,320
2017-02-24T14:01:16.446Z,320
2017-02-24T14:02:27.944Z,295
2017-02-24T14:03:39.512Z,260
2017-02-24T14:04:51.244Z,250
2017-02-24T14:06:02.949Z,250
2017-02-24T14:07:14.653Z,250
2017-02-24T14:08:26.203Z,245
2017-02-24T14:09:37.722Z,240
2017-02-24T14:10:49.242Z,255
2017-02-24T14:12:00.953Z,265
2017-02-24T14:13:12.468Z,260
2017-02-24T14:14:23.982Z,270
2017-02-24T14:15:35.509Z,280
2017-02-24T14:16:47.013Z,275
2017-02-24T14:17:58.543Z,270
2017-02-24T14:19:10.299Z,275
2017-02-24T14:20:21.813Z,280
2017-02-24T14:21:33.317Z,275
2017-02-24T14:22:44.828Z,265
2017-02-24T14:23:56.334Z,265
2017-02-24T14:25:07.827Z,275
2017-02-24T14:26:19.342Z,280
2017-02-24T14:27:30.826Z,275
2017-02-24T14:28:42.341Z,280
2017-02-24T14:29:53.910Z,285
2017-02-24T14:31:05.423Z,275
2017-02-24T14:32:16.911Z,265
2017-02-24T14:33:28.399Z,255
2017-02-24T14:34:39.914Z,245
2017-02-24T14:35:51.676Z,245
2017-02-24T14:37:03.181Z,275
2017-02-24T14:38:14.717Z,310
2017-02-24T14:39:26.425Z,255
2017-02-24T14:40:37.918Z,220
2017-02-24T14:41:49.481Z,215
2017-02-24T14:43:00.982Z,215
2017-02-24T14:44:12.479Z,210
2017-02-24T14:45:23.972Z,205
2017-02-24T14:46:35.479Z,205
2017-02-24T14:47:47.025Z,200
2017-02-24T14:48:58.721Z,200
2017-02-24T14:50:10.228Z,195
2017-02-24T14:51:21.765Z,195
2017-02-24T14:52:33.298Z,190
2017-02-24T14:53:44.849Z,190
2017-02-24T14:54:56.363Z,190
2017-02-24T14:56:07.892Z,195
2017-02-24T14:57:19.394Z,200
2017-02-24T14:58:31.103Z,200
2017-02-24T14:59:42.849Z,210
2017-02-24T15:00:54.352Z,215
2017-02-24T15:02:05.858Z,185
2017-02-24T15:03:17.346Z,225
2017-02-24T15:04:28.852Z,245
2017-02-24T15:05:40.624Z,255
2017-02-24T15:06:52.150Z,260
2017-02-24T15:08:03.682Z,265
2017-02-24T15:09:15.190Z,265
2017-02-24T15:10:26.901Z,260
2017-02-24T15:11:38.468Z,230
2017-02-24T15:12:50.360Z,220
2017-02-24T15:14:01.883Z,215
2017-02-24T15:15:13.395Z,190
2017-02-24T15:16:24.897Z,150
2017-02-24T15:17:36.465Z,145
2017-02-24T15:18:47.989Z,140
2017-02-24T15:19:59.461Z,120
2017-02-24T15:21:10.970Z,110
2017-02-24T15:22:22.491Z,100
2017-02-24T15:23:34.048Z,90
2017-02-24T15:24:45.562Z,85
2017-02-24T15:25:57.077Z,80
2017-02-24T15:27:08.644Z,105
2017-02-24T15:28:20.128Z,75
2017-02-24T15:29:31.683Z,80
2017-02-24T15:30:43.191Z,95
2017-02-24T15:31:54.709Z,90
2017-02-24T15:33:06.437Z,65
2017-02-24T15:34:17.948Z,75
2017-02-24T15:35:29.502Z,60
2017-02-24T15:36:41.226Z,60
2017-02-24T15:37:52.920Z,60
2017-02-24T15:39:04.429Z,55
2017-02-24T15:40:15.976Z,55
2017-02-24T15:41:27.530Z,50
2017-02-24T15:42:39.022Z,55
2017-02-24T15:43:50.546Z,55
2017-02-24T15:45:02.039Z,60
2017-02-24T15:46:13.529Z,65
2017-02-24T15:47:25.091Z,70
2017-02-24T15:48:36.809Z,70
2017-02-24T15:49:48.345Z,70
2017-02-24T15:50:59.867Z,80
2017-02-24T15:52:11.366Z,85
2017-02-24T15:53:22.905Z,105
2017-02-24T15:54:34.416Z,105
2017-02-24T15:55:45.928Z,95
2017-02-24T15:56:57.442Z,90
2017-02-24T15:58:08.923Z,100
2017-02-24T15:59:20.471Z,100
2017-02-24T16:00:32.165Z,95
2017-02-24T16:01:43.669Z,90
2017-02-24T16:02:55.175Z,85
2017-02-24T16:04:06.694Z,80
2017-02-24T16:05:18.245Z,80
2017-02-24T16:06:29.739Z,80
2017-02-24T16:07:41.264Z,75
2017-02-24T16:08:52.766Z,75
2017-02-24T16:10:04.286Z,75
2017-02-24T16:11:16.056Z,75
2017-02-24T16:12:27.574Z,70
2017-02-24T16:13:39.285Z,70
2017-02-24T16:14:50.804Z,70
2017-02-24T16:16:02.300Z,80
2017-02-24T16:17:13.853Z,80
2017-02-24T16:18:25.364Z,75
2017-02-24T16:19:37.071Z,75
2017-02-24T16:20:48.581Z,75
2017-02-24T16:22:00.081Z,75
2017-02-24T16:23:11.634Z,75
2017-02-24T16:24:23.141Z,75
2017-02-24T16:25:34.651Z,70
2017-02-24T16:26:46.162Z,70
2017-02-24T16:27:57.659Z,60
2017-02-24T16:29:09.454Z,55
2017-02-24T16:30:20.954Z,55
2017-02-24T16:31:32.506Z,50
2017-02-24T16:32:44.211Z,50
2017-02-24T16:33:55.908Z,45
2017-02-24T16:35:07.489Z,45
2017-02-24T16:36:18.976Z,40
2017-02-24T16:37:30.469Z,40
2017-02-24T16:38:41.963Z,35
2017-02-24T16:39:53.474Z,35
2017-02-24T16:41:05.200Z,35
2017-02-24T16:42:16.732Z,30
2017-02-24T16:43:28.243Z,30
2017-02-24T16:44:39.755Z,30
2017-02-24T16:45:51.468Z,25
2017-02-24T16:47:03.019Z,25
2017-02-24T16:48:14.517Z,25
2017-02-24T16:49:26.217Z,20
2017-02-24T16:50:37.723Z,20